Time;durP1;ratioP1;P1;durP2;ratioP2;P2;SDS_P1;SDS_P2;PMS_P1;PMS_P2;Temp;Humidity;BMP_temperature;BMP_pressure;BME280_temperature;BME280_humidity;BME280_pressure;Samples;Min_cycle;Max_cycle;Signal;HPM_P1;HPM_P2
2022/02/07 00:01:56;;;;;;;3.70;2.00;;;6.80;99.90;;;;;;5033034;28;20515;-46
2022/02/07 00:04:27;;;;;;;4.43;1.57;;;6.80;99.90;;;;;;5033123;28;20437;-47
2022/02/07 00:06:54;;;;;;;3.13;1.60;;;6.70;99.90;;;;;;5032916;28;20548;-46
2022/02/07 00:09:21;;;;;;;4.17;1.87;;;6.70;99.90;;;;;;5032902;28;20940;-48
2022/02/07 00:11:49;;;;;;;4.40;1.57;;;6.70;99.90;;;;;;5033469;28;20459;-47
2022/02/07 00:14:16;;;;;;;2.80;1.47;;;6.70;99.90;;;;;;5033713;28;20443;-47
2022/02/07 00:16:44;;;;;;;2.70;1.67;;;6.60;99.90;;;;;;5033432;28;21006;-46
2022/02/07 00:19:17;;;;;;;2.40;1.00;;;6.60;99.90;;;;;;5032653;28;20442;-47
2022/02/07 00:21:45;;;;;;;2.70;0.97;;;6.30;99.90;;;;;;5033105;28;20476;-47
2022/02/07 00:24:12;;;;;;;3.53;1.30;;;6.50;99.90;;;;;;5032942;28;20440;-46
2022/02/07 00:26:38;;;;;;;1.00;0.77;;;6.40;99.90;;;;;;5032388;28;20467;-46
2022/02/07 00:29:06;;;;;;;1.30;0.80;;;6.40;99.90;;;;;;5030982;28;20496;-47
2022/02/07 00:31:33;;;;;;;2.27;1.10;;;6.30;99.90;;;;;;5033006;28;20448;-47
2022/02/07 00:34:00;;;;;;;1.97;1.00;;;6.30;99.90;;;;;;5032450;28;20752;-46
2022/02/07 00:36:27;;;;;;;1.63;0.93;;;6.20;99.90;;;;;;5032749;28;20460;-46
2022/02/07 00:38:59;;;;;;;1.17;0.80;;;6.10;99.90;;;;;;5032230;28;20436;-47
2022/02/07 00:41:34;;;;;;;1.63;1.03;;;6.00;99.90;;;;;;5032585;28;21038;-46
2022/02/07 00:44:10;;;;;;;3.57;1.07;;;6.00;99.90;;;;;;5031137;28;20447;-47
2022/02/07 00:46:47;;;;;;;2.53;1.03;;;6.00;99.90;;;;;;5051035;28;20448;-47
2022/02/07 00:49:13;;;;;;;3.13;1.23;;;5.90;99.90;;;;;;5052155;28;20444;-46
2022/02/07 00:51:40;;;;;;;1.80;1.30;;;5.90;99.90;;;;;;5050995;28;20512;-46
2022/02/07 00:54:07;;;;;;;2.30;0.90;;;6.00;99.90;;;;;;5035119;28;20471;-47
2022/02/07 00:56:33;;;;;;;4.40;1.47;;;5.90;99.90;;;;;;5010610;28;20471;-46
2022/02/07 00:59:00;;;;;;;4.83;1.30;;;5.90;99.90;;;;;;5010351;28;20870;-47
2022/02/07 01:01:27;;;;;;;2.90;1.07;;;6.00;99.90;;;;;;5010567;28;20456;-48
2022/02/07 01:03:56;;;;;;;3.20;1.40;;;5.90;99.90;;;;;;5027482;28;20461;-47
2022/02/07 01:06:30;;;;;;;3.43;2.60;;;5.90;99.90;;;;;;5027281;28;21019;-46
2022/02/07 01:09:14;;;;;;;2.07;1.00;;;5.90;99.90;;;;;;5010850;28;20451;-47
2022/02/07 01:12:00;;;;;;;7.87;1.37;;;5.80;99.90;;;;;;5027012;28;20551;-46
2022/02/07 01:14:51;;;;;;;2.57;1.23;;;5.80;99.90;;;;;;5010376;28;20453;-47
2022/02/07 01:23:22;;;;;;;2.33;1.00;;;5.80;99.90;;;;;;5088214;27;20520;-46
2022/02/07 01:48:18;;;;;;;4.68;1.20;;;5.60;99.90;;;;;;5068664;28;20525;-50
2022/02/07 01:50:58;;;;;;;4.43;1.20;;;5.60;99.90;;;;;;5066802;28;20660;-50
2022/02/07 01:53:36;;;;;;;2.37;1.10;;;5.60;99.90;;;;;;5058418;28;20434;-51
2022/02/07 01:56:09;;;;;;;1.90;0.97;;;5.50;99.90;;;;;;5027105;28;20598;-51
2022/02/07 01:58:42;;;;;;;4.33;1.30;;;5.30;99.90;;;;;;5043452;28;20460;-51
2022/02/07 02:01:10;;;;;;;3.90;1.37;;;5.40;99.90;;;;;;5026941;28;20980;-50
2022/02/07 02:03:37;;;;;;;2.22;1.05;;;5.40;99.90;;;;;;5026920;28;20419;-51
2022/02/07 02:06:07;;;;;;;2.03;1.10;;;5.30;99.90;;;;;;5043610;28;20229;-52
2022/02/07 02:08:45;;;;;;;3.87;1.37;;;5.30;99.90;;;;;;5026681;28;20200;-51
2022/02/07 02:11:13;;;;;;;4.17;1.47;;;5.20;99.90;;;;;;5028665;28;20821;-50
2022/02/07 02:13:54;;;;;;;4.60;2.30;;;5.20;99.90;;;;;;5043390;28;20526;-51
2022/02/07 02:16:30;;;;;;;4.20;1.13;;;5.20;99.90;;;;;;5026871;28;20959;-51
2022/02/07 02:19:52;;;;;;;3.10;1.00;;;5.20;99.90;;;;;;5042965;28;20847;-51
2022/02/07 02:22:55;;;;;;;1.83;1.10;;;5.20;99.90;;;;;;5027835;28;20452;-51
2022/02/07 02:34:13;;;;;;;4.80;1.42;;;5.20;99.90;;;;;;5038457;28;20462;-51
2022/02/07 02:36:54;;;;;;;2.92;1.40;;;5.20;99.90;;;;;;5032896;28;20251;-50
2022/02/07 02:47:36;;;;;;;3.75;1.40;;;5.20;99.90;;;;;;5054097;28;20192;-50
2022/02/07 02:50:27;;;;;;;4.43;1.40;;;5.20;99.90;;;;;;5052435;28;20204;-51
2022/02/07 02:52:54;;;;;;;2.90;1.30;;;5.10;99.90;;;;;;5051501;28;20438;-51
2022/02/07 02:55:23;;;;;;;2.00;1.10;;;5.10;99.90;;;;;;5032756;28;20482;-50
2022/02/07 02:57:49;;;;;;;2.72;1.50;;;5.10;99.90;;;;;;5034187;28;20197;-50
2022/02/07 03:00:18;;;;;;;5.50;2.13;;;5.10;99.90;;;;;;5032279;28;20586;-50
2022/02/07 03:02:45;;;;;;;4.78;1.45;;;5.10;99.90;;;;;;5032765;28;20696;-50
2022/02/07 03:05:11;;;;;;;1.48;1.00;;;5.00;99.90;;;;;;5033841;28;20212;-51
2022/02/07 03:07:38;;;;;;;3.80;1.60;;;5.10;99.90;;;;;;5032433;28;20205;-50
2022/02/07 03:10:07;;;;;;;8.27;1.50;;;5.10;99.90;;;;;;5033245;28;20204;-51
2022/02/07 03:12:43;;;;;;;3.95;1.40;;;5.10;99.90;;;;;;5032392;28;20458;-51
2022/02/07 03:16:36;;;;;;;3.00;1.27;;;5.10;99.90;;;;;;5032307;28;20635;-50
2022/02/07 03:18:00;;;;;;;3.28;1.58;;;5.10;99.90;;;;;;5032142;28;20414;-50
2022/02/07 03:20:26;;;;;;;1.77;1.37;;;5.10;99.90;;;;;;5033182;28;20684;-50
2022/02/07 03:22:53;;;;;;;2.90;1.40;;;5.10;99.90;;;;;;5033349;28;20212;-51
2022/02/07 03:25:19;;;;;;;7.18;1.77;;;5.10;99.90;;;;;;5032119;28;20232;-50
2022/02/07 03:27:51;;;;;;;3.25;1.40;;;5.00;99.90;;;;;;5032149;28;20207;-51
2022/02/07 03:30:30;;;;;;;7.50;1.77;;;5.00;99.90;;;;;;5031745;28;20661;-51
2022/02/07 03:32:57;;;;;;;8.25;3.20;;;5.00;99.90;;;;;;5031945;28;20284;-51
2022/02/07 03:35:24;;;;;;;5.68;1.30;;;5.00;99.90;;;;;;5031732;28;20290;-52
2022/02/07 03:37:51;;;;;;;5.05;1.50;;;4.90;99.90;;;;;;5031885;28;20193;-51
2022/02/07 03:40:19;;;;;;;7.05;1.60;;;4.90;99.90;;;;;;5031571;28;20219;-52
2022/02/07 03:42:47;;;;;;;2.83;1.30;;;5.00;99.90;;;;;;5031825;28;20220;-51
2022/02/07 03:45:15;;;;;;;2.80;1.35;;;4.90;99.90;;;;;;5038877;28;20264;-50
2022/02/07 03:47:51;;;;;;;5.68;1.92;;;5.00;99.90;;;;;;5051599;28;20265;-51
2022/02/07 03:50:23;;;;;;;3.65;1.95;;;5.00;99.90;;;;;;5051289;28;20672;-51
2022/02/07 03:52:54;;;;;;;3.78;1.55;;;5.00;99.90;;;;;;5051433;28;20645;-51
2022/02/07 03:55:24;;;;;;;4.03;1.52;;;5.00;99.90;;;;;;5031682;28;20594;-51
2022/02/07 03:57:53;;;;;;;4.75;1.40;;;5.00;99.90;;;;;;5031556;28;20205;-50
2022/02/07 04:00:21;;;;;;;5.83;2.33;;;5.00;99.90;;;;;;5031080;28;20569;-51
2022/02/07 04:02:52;;;;;;;3.70;1.45;;;5.00;99.90;;;;;;5031328;28;20507;-51
2022/02/07 04:05:47;;;;;;;9.27;2.10;;;5.00;99.90;;;;;;5018522;28;20313;-50
2022/02/07 04:08:19;;;;;;;4.90;1.60;;;5.00;99.90;;;;;;5031237;28;20200;-51
2022/02/07 04:10:58;;;;;;;7.43;2.00;;;5.00;99.90;;;;;;5030992;28;20666;-51
2022/02/07 04:13:29;;;;;;;4.60;1.67;;;5.00;99.90;;;;;;5032473;28;20184;-51
2022/02/07 04:15:59;;;;;;;5.95;1.95;;;5.00;99.90;;;;;;5031122;28;20304;-50
2022/02/07 04:18:27;;;;;;;5.20;1.73;;;5.00;99.90;;;;;;5032237;28;20223;-51
2022/02/07 04:20:54;;;;;;;7.63;1.95;;;5.00;99.90;;;;;;5031005;28;20982;-50
2022/02/07 04:23:22;;;;;;;4.65;2.08;;;5.00;99.90;;;;;;5030936;28;20230;-51
2022/02/07 04:26:11;;;;;;;3.72;1.80;;;5.00;99.90;;;;;;5031928;28;20247;-51
2022/02/07 04:28:38;;;;;;;11.93;2.13;;;5.00;99.90;;;;;;5030426;28;20204;-51
2022/02/07 04:31:07;;;;;;;4.45;1.60;;;5.10;99.90;;;;;;5030867;28;20456;-51
2022/02/07 04:33:34;;;;;;;9.03;2.00;;;5.00;99.90;;;;;;5030742;28;20624;-51
2022/02/07 04:36:01;;;;;;;8.15;1.85;;;5.00;99.90;;;;;;5031979;28;20463;-51
2022/02/07 04:38:27;;;;;;;3.53;2.30;;;5.00;99.90;;;;;;5030525;28;20651;-50
2022/02/07 04:40:57;;;;;;;3.22;1.52;;;5.00;99.90;;;;;;5030723;28;20456;-51
2022/02/07 04:43:24;;;;;;;4.75;1.60;;;5.00;99.90;;;;;;5030541;28;20603;-51
2022/02/07 04:46:01;;;;;;;6.78;2.60;;;4.90;99.90;;;;;;5043796;28;20219;-51
2022/02/07 04:54:09;;;;;;;6.35;1.90;;;4.90;99.90;;;;;;5036651;28;20201;-51
2022/02/07 04:59:26;;;;;;;6.15;2.10;;;4.90;99.90;;;;;;5010464;28;20200;-51
2022/02/07 05:02:03;;;;;;;3.63;1.65;;;4.90;99.90;;;;;;5010861;28;20661;-50
2022/02/07 05:04:36;;;;;;;4.90;2.17;;;4.70;99.90;;;;;;5027093;28;20574;-51
2022/02/07 05:15:17;;;;;;;4.00;1.60;;;4.90;99.90;;;;;;5011863;28;20213;-51
2022/02/07 05:17:45;;;;;;;5.80;1.95;;;4.90;99.90;;;;;;5010425;28;20205;-51
2022/02/07 05:20:48;;;;;;;6.00;1.77;;;4.90;99.90;;;;;;4931791;29;20728;-51
2022/02/07 05:23:22;;;;;;;5.93;1.80;;;4.90;99.90;;;;;;4995078;28;20222;-51
2022/02/07 05:26:04;;;;;;;7.00;1.95;;;4.90;99.90;;;;;;5010289;28;20243;-51
2022/02/07 05:28:50;;;;;;;8.73;2.15;;;4.90;99.90;;;;;;5031111;28;20700;-50
2022/02/07 05:31:24;;;;;;;7.63;2.13;;;4.90;99.90;;;;;;5030186;28;20557;-50
2022/02/07 05:34:07;;;;;;;8.25;1.58;;;4.90;99.90;;;;;;5030305;28;20338;-49
2022/02/07 05:36:54;;;;;;;6.13;1.38;;;4.90;99.90;;;;;;5029710;28;20721;-50
2022/02/07 05:39:34;;;;;;;5.00;2.25;;;4.70;99.90;;;;;;5029469;28;20223;-51
2022/02/07 05:42:30;;;;;;;3.20;1.58;;;4.90;99.90;;;;;;5011741;28;20679;-51
2022/02/07 05:45:08;;;;;;;5.22;1.75;;;4.90;99.90;;;;;;5036913;28;20247;-50
2022/02/07 05:47:48;;;;;;;9.25;2.10;;;4.90;99.90;;;;;;5049665;28;20203;-50
2022/02/07 05:50:33;;;;;;;5.68;2.10;;;4.90;99.90;;;;;;5050844;28;20547;-50
2022/02/07 05:53:19;;;;;;;5.10;1.92;;;4.90;99.90;;;;;;5041759;28;20203;-50
2022/02/07 05:55:57;;;;;;;4.60;2.17;;;4.90;99.90;;;;;;5009882;28;20235;-50
2022/02/07 05:58:35;;;;;;;6.05;1.70;;;4.80;99.90;;;;;;5009884;28;20201;-50
2022/02/07 06:01:17;;;;;;;6.47;1.98;;;4.80;99.90;;;;;;5026717;28;20696;-50
2022/02/07 06:03:45;;;;;;;7.30;1.80;;;4.80;99.90;;;;;;5009974;28;20674;-50
2022/02/07 06:06:13;;;;;;;10.32;2.28;;;4.80;99.90;;;;;;5026362;28;20226;-50
2022/02/07 06:08:42;;;;;;;6.68;1.88;;;4.80;99.90;;;;;;5028116;28;20252;-51
2022/02/07 06:11:12;;;;;;;10.85;2.50;;;4.80;99.90;;;;;;5014919;28;20691;-50
2022/02/07 06:13:40;;;;;;;9.18;2.20;;;4.90;99.90;;;;;;5013268;28;20200;-50
2022/02/07 06:16:17;;;;;;;8.45;2.22;;;4.90;99.90;;;;;;5013506;28;20567;-50
2022/02/07 06:18:48;;;;;;;9.82;2.30;;;4.90;99.90;;;;;;5029608;28;20577;-50
2022/02/07 06:21:15;;;;;;;6.53;2.67;;;4.90;99.90;;;;;;5013034;28;20206;-50
2022/02/07 06:23:43;;;;;;;7.10;2.17;;;4.90;99.90;;;;;;5029654;28;20217;-50
2022/02/07 06:26:14;;;;;;;6.97;2.10;;;4.90;99.90;;;;;;5029483;28;20268;-50
2022/02/07 06:28:43;;;;;;;5.05;2.13;;;4.90;99.90;;;;;;5031452;28;20598;-50
2022/02/07 06:31:10;;;;;;;10.27;2.70;;;4.90;99.90;;;;;;5032823;28;20715;-50
2022/02/07 06:33:38;;;;;;;6.60;1.92;;;4.90;99.90;;;;;;5032954;28;20201;-52
2022/02/07 06:36:07;;;;;;;4.47;1.77;;;4.90;99.90;;;;;;5032590;28;20232;-51
2022/02/07 06:38:34;;;;;;;9.02;3.15;;;4.90;99.90;;;;;;5032952;28;20201;-50
2022/02/07 06:41:02;;;;;;;6.70;2.53;;;4.90;99.90;;;;;;5032332;28;20209;-50
2022/02/07 06:43:30;;;;;;;10.80;4.05;;;5.00;99.90;;;;;;5031868;28;20235;-50
2022/02/07 06:45:58;;;;;;;3.83;1.95;;;5.00;99.90;;;;;;5046120;28;20229;-50
2022/02/07 06:48:25;;;;;;;8.30;3.33;;;5.00;99.90;;;;;;5051777;28;20204;-51
2022/02/07 06:50:52;;;;;;;8.75;1.80;;;5.00;99.90;;;;;;5051926;28;20231;-51
2022/02/07 06:53:19;;;;;;;3.35;1.70;;;5.00;99.90;;;;;;5043708;28;20292;-50
2022/02/07 06:55:48;;;;;;;3.55;1.70;;;5.00;99.90;;;;;;5012212;28;20232;-50
2022/02/07 06:58:16;;;;;;;5.75;2.00;;;5.00;99.90;;;;;;5012185;28;20579;-50
2022/02/07 07:00:43;;;;;;;7.53;2.40;;;5.00;99.90;;;;;;5028754;28;20209;-51
2022/02/07 07:03:16;;;;;;;3.93;2.47;;;5.10;99.90;;;;;;5012152;28;20504;-50
2022/02/07 07:05:43;;;;;;;5.43;2.00;;;5.10;99.90;;;;;;5011963;28;20815;-51
2022/02/07 07:08:09;;;;;;;12.23;2.42;;;5.00;99.90;;;;;;5013637;28;20483;-51
2022/02/07 07:10:37;;;;;;;7.00;2.03;;;5.20;99.90;;;;;;5028812;28;20201;-51
2022/02/07 07:13:10;;;;;;;5.67;2.43;;;5.20;99.90;;;;;;5029148;28;20547;-51
2022/02/07 07:15:42;;;;;;;14.57;2.75;;;5.20;99.90;;;;;;5028517;28;20460;-50
2022/02/07 07:18:10;;;;;;;8.97;2.70;;;5.20;99.90;;;;;;5011914;28;20201;-50
2022/02/07 07:20:39;;;;;;;4.73;1.87;;;5.20;99.90;;;;;;5028281;28;20453;-50
2022/02/07 07:23:06;;;;;;;5.25;2.67;;;5.20;99.90;;;;;;5011629;28;20502;-50
2022/02/07 07:25:37;;;;;;;8.93;2.90;;;5.30;99.90;;;;;;5012047;28;20217;-50
2022/02/07 07:28:05;;;;;;;8.38;2.70;;;5.20;99.90;;;;;;5025116;28;20547;-50
2022/02/07 07:30:44;;;;;;;10.67;2.33;;;5.30;99.90;;;;;;5031598;28;20591;-50
2022/02/07 07:33:12;;;;;;;7.43;2.75;;;5.30;99.90;;;;;;5031536;28;20456;-50
2022/02/07 07:35:40;;;;;;;11.47;2.97;;;5.30;99.90;;;;;;5057030;23;20286;-46
2022/02/07 07:38:07;;;;;;;7.97;3.13;;;5.30;99.90;;;;;;5052120;28;20481;-46
2022/02/07 07:40:35;;;;;;;12.40;2.67;;;5.30;99.90;;;;;;5050417;28;20205;-47
2022/02/07 07:43:07;;;;;;;7.00;2.80;;;5.30;99.90;;;;;;5051018;28;20590;-45
2022/02/07 07:46:00;;;;;;;7.90;2.25;;;5.60;99.90;;;;;;5052064;28;20722;-47
2022/02/07 07:48:48;;;;;;;7.40;1.95;;;5.40;99.90;;;;;;5050392;28;20219;-46
2022/02/07 07:51:58;;;;;;;13.55;3.42;;;5.50;99.90;;;;;;4971335;28;20208;-46
2022/02/07 07:54:47;;;;;;;12.63;3.33;;;5.50;99.90;;;;;;4970872;28;20207;-46
2022/02/07 08:02:48;;;;;;;6.33;2.37;;;5.60;99.90;;;;;;5032087;28;20468;-47
2022/02/07 08:05:34;;;;;;;7.40;2.73;;;5.70;99.90;;;;;;5030493;28;20585;-47
2022/02/07 08:08:10;;;;;;;9.77;2.40;;;5.70;99.90;;;;;;5030082;28;20465;-47
2022/02/07 08:10:50;;;;;;;7.55;2.97;;;5.60;99.90;;;;;;5029982;28;20522;-46
2022/02/07 08:13:18;;;;;;;5.97;2.57;;;5.70;99.90;;;;;;5030104;28;20236;-47
2022/02/07 08:15:52;;;;;;;8.67;3.57;;;5.70;99.90;;;;;;5029927;28;20478;-46
2022/02/07 08:18:20;;;;;;;9.87;3.23;;;5.70;99.90;;;;;;5031247;28;20436;-45
2022/02/07 08:20:46;;;;;;;10.80;2.73;;;5.70;99.90;;;;;;5031829;28;20436;-47
2022/02/07 08:23:13;;;;;;;9.83;2.70;;;5.70;99.90;;;;;;5031235;28;20480;-47
2022/02/07 08:25:40;;;;;;;5.47;2.33;;;5.80;99.90;;;;;;5031518;28;20453;-47
2022/02/07 08:28:07;;;;;;;10.23;3.73;;;5.80;99.90;;;;;;5045287;28;20424;-46
2022/02/07 08:30:34;;;;;;;6.43;2.43;;;5.80;99.90;;;;;;5050425;28;20447;-46
2022/02/07 08:33:02;;;;;;;9.10;2.70;;;5.80;99.90;;;;;;5051587;28;20435;-46
2022/02/07 08:35:31;;;;;;;9.97;3.30;;;5.80;99.90;;;;;;5051186;28;20838;-47
2022/02/07 08:37:58;;;;;;;8.47;2.97;;;5.80;99.90;;;;;;5050960;28;21001;-44
2022/02/07 08:40:26;;;;;;;8.10;2.17;;;5.80;99.90;;;;;;5050693;28;20495;-48
2022/02/07 08:42:54;;;;;;;11.30;3.10;;;5.80;99.90;;;;;;5051007;28;20445;-47
2022/02/07 08:45:20;;;;;;;6.60;2.20;;;5.80;99.90;;;;;;5051352;28;20440;-46
2022/02/07 08:47:47;;;;;;;6.00;2.30;;;5.90;99.90;;;;;;5050271;28;20939;-47
2022/02/07 08:50:14;;;;;;;7.23;2.20;;;5.90;99.90;;;;;;5050870;28;20916;-46
2022/02/07 08:52:46;;;;;;;13.47;2.57;;;5.90;99.90;;;;;;5051439;28;20930;-47
2022/02/07 08:55:21;;;;;;;5.73;2.10;;;5.90;99.90;;;;;;5030705;28;20505;-45
2022/02/07 08:57:53;;;;;;;7.10;1.87;;;6.00;99.90;;;;;;5035808;28;20422;-47
2022/02/07 09:00:25;;;;;;;5.97;2.20;;;6.00;99.90;;;;;;5035084;28;20513;-48
2022/02/07 09:05:45;;;;;;;6.17;2.17;;;5.90;99.90;;;;;;5044216;28;20466;-47
2022/02/07 09:08:26;;;;;;;8.17;2.53;;;6.10;99.90;;;;;;5032531;28;20427;-48
2022/02/07 09:10:54;;;;;;;10.47;2.80;;;6.10;99.90;;;;;;5031493;28;20823;-46
2022/02/07 09:13:28;;;;;;;6.23;2.70;;;6.20;99.90;;;;;;5030709;28;20589;-46
2022/02/07 09:16:03;;;;;;;12.37;2.90;;;6.30;99.90;;;;;;5030796;28;20432;-47
2022/02/07 09:18:29;;;;;;;8.47;3.43;;;6.30;99.90;;;;;;5031332;28;20454;-46
2022/02/07 09:20:58;;;;;;;6.30;1.93;;;6.30;99.90;;;;;;5031882;28;20428;-46
2022/02/07 09:23:28;;;;;;;11.60;2.87;;;6.30;99.90;;;;;;5030820;28;20459;-46
2022/02/07 09:25:55;;;;;;;9.63;2.80;;;6.20;99.90;;;;;;5030769;28;20492;-45
2022/02/07 09:28:21;;;;;;;10.53;2.20;;;6.40;99.90;;;;;;5045995;28;20470;-48
2022/02/07 09:30:49;;;;;;;9.00;3.30;;;6.40;99.90;;;;;;5047446;28;20447;-46
2022/02/07 09:33:16;;;;;;;9.37;2.60;;;6.50;99.90;;;;;;5030049;28;20430;-48
2022/02/07 09:35:43;;;;;;;9.40;2.70;;;6.50;99.90;;;;;;5030049;28;20821;-47
2022/02/07 09:38:10;;;;;;;10.70;3.63;;;6.50;99.90;;;;;;5030523;28;20408;-47
2022/02/07 09:40:41;;;;;;;7.97;3.00;;;6.50;99.90;;;;;;5030730;28;20929;-46
2022/02/07 09:43:08;;;;;;;15.33;3.00;;;6.60;99.90;;;;;;5030343;28;20484;-46
2022/02/07 09:45:37;;;;;;;7.70;2.00;;;6.70;99.90;;;;;;5046327;28;20452;-46
2022/02/07 09:48:06;;;;;;;10.50;2.67;;;6.70;99.90;;;;;;5054977;28;20442;-47
2022/02/07 09:50:33;;;;;;;6.37;2.50;;;6.70;99.90;;;;;;5054502;28;20434;-47
2022/02/07 09:53:00;;;;;;;9.97;2.87;;;6.70;99.90;;;;;;5054039;28;20499;-46
2022/02/07 09:55:27;;;;;;;12.10;2.93;;;6.70;99.90;;;;;;5054228;28;20518;-46
2022/02/07 09:57:55;;;;;;;13.90;5.17;;;6.70;99.90;;;;;;5054237;28;20439;-45
2022/02/07 10:00:28;;;;;;;15.30;5.03;;;6.70;99.90;;;;;;5053435;28;20406;-46
2022/02/07 10:03:06;;;;;;;13.90;3.27;;;6.90;99.90;;;;;;5053809;28;20454;-47
2022/02/07 10:05:43;;;;;;;14.93;3.10;;;6.80;99.90;;;;;;5045344;28;20472;-47
2022/02/07 10:08:16;;;;;;;10.60;2.93;;;6.80;99.90;;;;;;5033868;28;20417;-46
2022/02/07 10:10:59;;;;;;;8.30;3.57;;;6.90;99.90;;;;;;5033884;28;20515;-46
2022/02/07 10:13:40;;;;;;;18.57;3.50;;;7.00;99.90;;;;;;5034479;28;20443;-47
2022/02/07 10:16:24;;;;;;;15.20;3.13;;;6.90;99.90;;;;;;5035553;28;20986;-46
2022/02/07 10:19:02;;;;;;;11.10;3.20;;;7.00;99.90;;;;;;5035186;28;20982;-45
2022/02/07 10:21:58;;;;;;;7.95;3.05;;;7.10;99.90;;;;;;5035966;28;20881;-46
2022/02/07 10:36:07;;;;;;;8.40;3.13;;;7.50;99.90;;;;;;5035922;28;20670;-46
2022/02/07 10:38:47;;;;;;;8.33;3.10;;;7.40;99.90;;;;;;5033337;28;20978;-45
2022/02/07 10:41:40;;;;;;;11.07;3.50;;;7.40;99.90;;;;;;5034002;28;20438;-54
2022/02/07 10:44:43;;;;;;;12.33;4.27;;;7.40;99.90;;;;;;5033778;28;20486;-46
2022/02/07 10:47:17;;;;;;;18.63;5.13;;;7.40;99.90;;;;;;5034326;28;20662;-47
2022/02/07 10:50:01;;;;;;;14.53;3.23;;;7.30;99.90;;;;;;5033449;28;20434;-47
2022/02/07 10:52:28;;;;;;;13.20;3.23;;;7.40;99.90;;;;;;5033411;28;20827;-46
2022/02/07 10:54:55;;;;;;;11.23;3.00;;;7.40;99.90;;;;;;5032175;28;20471;-46
2022/02/07 10:57:23;;;;;;;9.73;2.27;;;7.50;99.90;;;;;;5051078;28;20510;-45
2022/02/07 10:59:50;;;;;;;12.50;3.50;;;7.30;99.90;;;;;;5032932;28;20486;-45
2022/02/07 11:02:48;;;;;;;16.25;3.70;;;7.70;99.90;;;;;;5038440;28;20428;-46
2022/02/07 11:05:17;;;;;;;12.80;3.33;;;7.80;99.90;;;;;;5035214;28;20287;-46
2022/02/07 11:07:44;;;;;;;13.20;3.07;;;7.80;99.90;;;;;;5032975;28;20440;-47
2022/02/07 11:10:28;;;;;;;14.83;3.33;;;7.80;99.90;;;;;;5033032;28;20489;-46
2022/02/07 11:16:03;;;;;;;11.10;2.50;;;7.70;99.90;;;;;;5052591;28;20474;-47
2022/02/07 11:19:01;;;;;;;11.50;2.63;;;7.80;99.90;;;;;;5052473;28;20442;-46
2022/02/07 11:21:37;;;;;;;14.90;2.80;;;7.80;99.90;;;;;;5053009;28;20450;-46
2022/02/07 11:24:28;;;;;;;16.47;3.47;;;7.80;99.90;;;;;;5052590;28;20562;-46
2022/02/07 11:26:55;;;;;;;24.73;12.70;;;7.70;99.90;;;;;;5047494;28;20470;-45
2022/02/07 11:29:38;;;;;;;18.27;3.80;;;7.60;99.90;;;;;;5049825;28;20456;-46
2022/02/07 11:32:05;;;;;;;9.27;3.40;;;7.70;99.90;;;;;;5051902;28;20467;-45
2022/02/07 11:34:49;;;;;;;13.50;3.00;;;7.60;99.90;;;;;;5053154;28;20877;-46
2022/02/07 11:37:21;;;;;;;8.50;3.20;;;7.60;99.90;;;;;;5053251;28;20448;-47
2022/02/07 11:39:50;;;;;;;14.77;3.30;;;7.70;99.90;;;;;;5032547;28;20461;-48
2022/02/07 11:42:17;;;;;;;10.60;3.50;;;7.80;99.90;;;;;;5032926;28;20454;-47
2022/02/07 11:45:14;;;;;;;35.37;4.50;;;7.80;99.90;;;;;;5036937;28;20573;-46
2022/02/07 11:47:42;;;;;;;19.70;3.70;;;7.90;99.90;;;;;;5008257;28;20512;-46
2022/02/07 11:50:10;;;;;;;17.70;4.30;;;7.80;99.90;;;;;;5052695;28;20441;-47
2022/02/07 11:52:41;;;;;;;12.87;4.00;;;8.00;99.90;;;;;;5053260;28;20752;-48
2022/02/07 11:55:12;;;;;;;14.90;4.03;;;7.90;99.90;;;;;;5052634;28;20460;-47
2022/02/07 11:57:42;;;;;;;10.63;4.17;;;7.90;99.60;;;;;;5052928;28;20457;-47
2022/02/07 12:00:12;;;;;;;17.70;3.60;;;7.80;99.80;;;;;;5052752;28;20799;-47
2022/02/07 12:02:41;;;;;;;11.40;3.27;;;8.00;99.90;;;;;;5052132;28;20512;-48
2022/02/07 12:05:10;;;;;;;10.67;3.50;;;8.00;99.90;;;;;;5047080;28;20562;-47
2022/02/07 12:07:38;;;;;;;13.20;3.57;;;7.90;99.40;;;;;;5032479;28;20442;-46
2022/02/07 12:10:25;;;;;;;18.33;4.93;;;7.90;99.30;;;;;;5031505;28;20828;-47
2022/02/07 12:12:51;;;;;;;11.97;3.50;;;7.80;98.70;;;;;;5031259;28;20443;-47
2022/02/07 12:15:26;;;;;;;12.73;2.97;;;7.70;98.50;;;;;;5032149;28;20431;-47
2022/02/07 12:17:56;;;;;;;15.80;3.93;;;7.80;98.60;;;;;;5032630;28;20411;-45
2022/02/07 12:20:26;;;;;;;22.17;5.90;;;7.80;99.10;;;;;;5030650;28;20434;-48
2022/02/07 12:22:54;;;;;;;17.40;5.10;;;8.00;98.80;;;;;;5031165;28;20434;-47
2022/02/07 12:25:23;;;;;;;18.30;4.17;;;8.20;99.20;;;;;;5032642;28;20568;-46
2022/02/07 12:27:51;;;;;;;16.87;4.60;;;8.10;99.50;;;;;;5044251;28;20428;-46
2022/02/07 12:30:29;;;;;;;23.30;4.17;;;8.00;99.70;;;;;;5051646;28;20432;-45
2022/02/07 12:32:56;;;;;;;21.63;4.40;;;8.00;99.90;;;;;;5051803;28;20434;-46
2022/02/07 12:35:26;;;;;;;14.87;3.73;;;8.00;99.90;;;;;;5050759;28;20455;-46
2022/02/07 12:37:53;;;;;;;12.50;3.63;;;7.80;99.60;;;;;;5051954;28;21029;-47
2022/02/07 12:40:20;;;;;;;14.57;4.03;;;8.00;99.10;;;;;;5052080;28;20442;-47
2022/02/07 12:42:47;;;;;;;15.13;6.30;;;8.00;98.80;;;;;;5051272;28;20432;-46
2022/02/07 12:45:14;;;;;;;13.67;3.37;;;7.90;97.30;;;;;;5051244;28;20477;-47
2022/02/07 12:47:41;;;;;;;15.13;4.00;;;7.90;97.60;;;;;;5051030;28;20825;-47
2022/02/07 12:50:10;;;;;;;13.63;3.97;;;7.80;96.70;;;;;;5051183;28;20982;-48
2022/02/07 12:52:38;;;;;;;15.53;4.83;;;7.80;96.50;;;;;;5051496;28;20469;-46
2022/02/07 12:55:07;;;;;;;11.57;3.57;;;7.80;95.90;;;;;;5051765;28;20404;-47
2022/02/07 12:57:38;;;;;;;20.53;4.60;;;7.80;95.80;;;;;;5051789;28;20799;-47
2022/02/07 13:00:06;;;;;;;15.53;3.60;;;7.80;96.20;;;;;;5050723;28;20457;-47
2022/02/07 13:02:33;;;;;;;11.60;3.60;;;7.70;96.00;;;;;;5051465;28;20766;-47
2022/02/07 13:05:00;;;;;;;14.07;4.53;;;7.70;95.70;;;;;;5051469;28;20448;-46
2022/02/07 13:07:31;;;;;;;14.80;4.03;;;7.70;96.20;;;;;;5049693;28;20660;-46
2022/02/07 13:09:59;;;;;;;15.60;3.80;;;7.70;95.80;;;;;;5051020;28;20414;-49
2022/02/07 13:12:39;;;;;;;22.13;4.10;;;7.70;96.10;;;;;;5050554;28;20916;-48
2022/02/07 13:15:13;;;;;;;17.40;3.30;;;7.70;96.00;;;;;;5050792;28;20488;-47
2022/02/07 13:17:40;;;;;;;21.60;4.17;;;7.70;95.90;;;;;;5050860;28;20447;-48
2022/02/07 13:20:10;;;;;;;15.73;4.57;;;7.70;95.90;;;;;;5049220;28;20430;-46
2022/02/07 13:22:36;;;;;;;16.93;4.13;;;7.70;96.20;;;;;;5050566;28;20401;-47
2022/02/07 13:25:08;;;;;;;15.00;4.43;;;7.80;95.90;;;;;;5047113;28;20501;-46
2022/02/07 13:27:38;;;;;;;12.43;4.43;;;7.80;95.10;;;;;;5040765;28;20413;-46
2022/02/07 13:30:10;;;;;;;20.53;4.30;;;7.70;94.60;;;;;;5042388;28;20458;-46
2022/02/07 13:32:37;;;;;;;23.70;3.93;;;7.80;94.60;;;;;;5049994;28;20416;-46
2022/02/07 13:35:09;;;;;;;12.73;4.73;;;7.90;95.30;;;;;;5050869;28;20451;-47
2022/02/07 13:37:38;;;;;;;15.80;4.50;;;7.90;94.80;;;;;;5047352;22;20499;-46
2022/02/07 13:40:08;;;;;;;13.83;3.97;;;7.90;94.50;;;;;;5028800;28;20588;-46
2022/02/07 13:42:37;;;;;;;11.93;3.70;;;7.90;94.40;;;;;;5031304;28;20951;-46
2022/02/07 13:45:07;;;;;;;15.07;4.27;;;7.80;93.90;;;;;;5037632;28;20448;-46
2022/02/07 13:47:35;;;;;;;10.90;4.10;;;7.80;94.20;;;;;;5030481;28;20459;-46
2022/02/07 13:50:05;;;;;;;16.40;4.10;;;7.80;94.30;;;;;;5034231;28;20945;-47
2022/02/07 13:52:34;;;;;;;14.97;3.13;;;7.70;93.80;;;;;;5031108;28;20775;-45
2022/02/07 13:55:28;;;;;;;14.90;4.40;;;7.80;94.50;;;;;;5031105;28;20408;-46
2022/02/07 13:57:58;;;;;;;14.77;4.80;;;7.70;96.20;;;;;;4997349;28;20454;-46
2022/02/07 14:00:26;;;;;;;20.23;4.70;;;7.60;97.30;;;;;;5025183;28;20929;-45
2022/02/07 14:03:12;;;;;;;15.63;4.20;;;7.50;97.60;;;;;;5029418;28;20550;-45
2022/02/07 14:05:40;;;;;;;13.40;4.53;;;7.40;97.70;;;;;;5037585;28;21071;-45
2022/02/07 14:08:09;;;;;;;12.93;3.70;;;7.30;98.50;;;;;;5050621;28;20473;-46
2022/02/07 14:10:38;;;;;;;8.50;3.03;;;7.20;98.50;;;;;;5050373;28;20441;-45
2022/02/07 14:13:06;;;;;;;10.00;2.90;;;7.10;98.50;;;;;;5050970;28;20423;-45
2022/02/07 14:15:34;;;;;;;15.40;4.80;;;7.10;98.20;;;;;;5049196;28;20445;-46
2022/02/07 14:18:03;;;;;;;15.63;3.47;;;7.10;98.40;;;;;;5050905;28;20480;-45
2022/02/07 14:20:32;;;;;;;13.03;3.60;;;7.10;98.70;;;;;;5037950;28;20489;-46
2022/02/07 14:22:58;;;;;;;13.80;4.03;;;7.10;98.90;;;;;;5048634;28;20787;-46
2022/02/07 14:25:28;;;;;;;15.20;3.90;;;7.10;98.60;;;;;;5048649;28;20969;-46
2022/02/07 14:27:57;;;;;;;15.70;4.83;;;7.10;98.50;;;;;;5038256;28;20512;-46
2022/02/07 14:30:26;;;;;;;9.33;4.03;;;7.00;98.80;;;;;;5032661;28;20455;-46
2022/02/07 14:32:52;;;;;;;9.93;3.10;;;7.00;99.10;;;;;;5034670;28;20458;-46
2022/02/07 14:35:19;;;;;;;13.43;4.07;;;6.90;99.90;;;;;;5034621;28;20430;-46
2022/02/07 14:37:46;;;;;;;14.97;3.43;;;6.80;99.90;;;;;;5030245;28;20794;-46
2022/02/07 14:40:13;;;;;;;13.50;3.70;;;6.80;99.90;;;;;;5051534;28;20443;-47
2022/02/07 14:42:40;;;;;;;11.23;3.40;;;6.70;99.90;;;;;;5053207;28;20427;-47
2022/02/07 14:45:13;;;;;;;13.10;3.20;;;6.70;99.90;;;;;;5046641;28;20695;-46